createdAt,value
2023-05-10T00:02:23.310Z,1.77
2023-05-10T00:05:25.758Z,2.00
2023-05-10T00:08:27.978Z,2.25
2023-05-10T00:11:30.280Z,2.42
2023-05-10T00:14:32.480Z,2.20
2023-05-10T00:17:34.682Z,2.40
2023-05-10T00:20:36.940Z,2.25
2023-05-10T00:23:39.231Z,2.20
2023-05-10T00:26:43.314Z,2.10
2023-05-10T00:29:45.527Z,2.33
2023-05-10T00:32:49.218Z,2.45
2023-05-10T00:35:51.515Z,2.30
2023-05-10T00:38:53.702Z,2.00
2023-05-10T00:41:56.073Z,2.15
2023-05-10T00:44:58.837Z,2.40
2023-05-10T00:48:03.371Z,2.28
2023-05-10T00:51:05.674Z,2.50
2023-05-10T00:54:08.444Z,2.78
2023-05-10T00:57:11.004Z,2.65
2023-05-10T01:00:13.646Z,3.00
2023-05-10T01:03:16.072Z,2.58
2023-05-10T01:06:18.405Z,2.60
2023-05-10T01:09:24.628Z,2.17
2023-05-10T01:12:26.871Z,2.53
2023-05-10T01:15:30.739Z,2.17
2023-05-10T01:18:35.193Z,2.25
2023-05-10T01:22:00.767Z,2.35
2023-05-10T01:25:05.957Z,2.15
2023-05-10T01:28:08.231Z,2.25
2023-05-10T01:31:23.786Z,2.60
2023-05-10T01:34:28.492Z,2.25
2023-05-10T01:37:42.555Z,2.33
2023-05-10T01:40:53.876Z,2.50
2023-05-10T01:44:01.750Z,2.70
2023-05-10T01:47:10.812Z,2.23
2023-05-10T01:50:25.683Z,2.10
2023-05-10T01:53:28.338Z,2.38
2023-05-10T01:56:31.806Z,2.75
2023-05-10T01:59:41.636Z,2.33
2023-05-10T02:02:46.374Z,2.43
2023-05-10T02:05:49.865Z,2.55
2023-05-10T02:08:53.242Z,2.33
2023-05-10T02:11:56.196Z,2.50
2023-05-10T02:15:00.567Z,2.47
2023-05-10T02:18:03.538Z,2.60
2023-05-10T02:21:06.096Z,2.42
2023-05-10T02:24:09.648Z,2.50
2023-05-10T02:27:12.434Z,2.20
2023-05-10T02:30:15.054Z,2.25
2023-05-10T02:33:17.936Z,2.40
2023-05-10T02:36:22.322Z,2.45
2023-05-10T02:39:25.576Z,2.58
2023-05-10T02:42:28.838Z,2.63
2023-05-10T02:45:32.224Z,3.00
2023-05-10T02:48:34.608Z,2.60
2023-05-10T02:51:38.450Z,2.50
2023-05-10T02:54:48.882Z,2.53
2023-05-10T02:57:57.962Z,2.53
2023-05-10T03:01:00.873Z,3.17
2023-05-10T03:04:03.086Z,2.53
2023-05-10T03:07:05.519Z,2.67
2023-05-10T03:10:08.264Z,3.17
2023-05-10T03:13:36.579Z,2.90
2023-05-10T03:16:50.620Z,3.17
2023-05-10T03:20:13.240Z,3.23
2023-05-10T03:23:18.470Z,2.85
2023-05-10T03:26:27.807Z,2.92
2023-05-10T03:29:38.592Z,2.83
2023-05-10T03:32:41.177Z,2.88
2023-05-10T03:35:45.192Z,2.90
2023-05-10T03:38:47.628Z,2.75
2023-05-10T03:41:50.240Z,3.20
2023-05-10T03:44:52.488Z,3.30
2023-05-10T03:47:55.111Z,3.10
2023-05-10T03:50:57.626Z,3.00
2023-05-10T03:54:00.692Z,2.90
2023-05-10T03:57:03.982Z,3.30
2023-05-10T04:00:06.961Z,3.10
2023-05-10T04:03:16.799Z,3.88
2023-05-10T04:06:19.360Z,3.47
2023-05-10T04:09:21.750Z,3.80
2023-05-10T04:12:23.925Z,3.88
2023-05-10T04:15:26.043Z,3.55
2023-05-10T04:18:28.375Z,3.47
2023-05-10T04:21:31.494Z,3.23
2023-05-10T04:24:33.719Z,3.65
2023-05-10T04:27:35.964Z,3.35
2023-05-10T04:30:38.362Z,3.25
2023-05-10T04:33:40.582Z,3.50
2023-05-10T04:36:42.776Z,4.37
2023-05-10T04:39:44.992Z,4.22
2023-05-10T04:42:47.341Z,4.28
2023-05-10T04:45:49.617Z,4.25
2023-05-10T04:48:51.870Z,4.72
2023-05-10T04:51:54.150Z,4.23
2023-05-10T04:54:56.540Z,4.43
2023-05-10T04:58:00.162Z,4.93
2023-05-10T05:01:11.806Z,4.43
2023-05-10T05:04:15.635Z,4.53
2023-05-10T05:07:17.864Z,4.17
2023-05-10T05:10:46.897Z,4.20
2023-05-10T05:13:53.913Z,3.63
2023-05-10T05:16:58.809Z,4.20
2023-05-10T05:20:04.585Z,4.40
2023-05-10T05:23:27.500Z,4.03
2023-05-10T05:26:42.359Z,4.18
2023-05-10T05:29:56.636Z,3.80
2023-05-10T05:33:03.330Z,3.55
2023-05-10T05:36:18.515Z,3.83
2023-05-10T05:39:22.153Z,4.03
2023-05-10T05:42:25.056Z,4.00
2023-05-10T05:45:27.297Z,3.83
2023-05-10T05:48:30.852Z,3.75
2023-05-10T05:51:33.493Z,3.70
2023-05-10T05:54:38.506Z,4.03
2023-05-10T05:57:41.835Z,3.35
2023-05-10T06:00:45.393Z,3.60
2023-05-10T06:03:53.406Z,3.63
2023-05-10T06:06:56.044Z,4.00
2023-05-10T06:09:59.389Z,3.67
2023-05-10T06:13:02.770Z,3.47
2023-05-10T06:16:06.662Z,3.75
2023-05-10T06:19:09.075Z,3.70
2023-05-10T06:22:11.886Z,4.15
2023-05-10T06:25:15.616Z,3.60
2023-05-10T06:28:19.974Z,4.30
2023-05-10T06:31:22.642Z,3.65
2023-05-10T06:34:25.275Z,3.83
2023-05-10T06:37:28.428Z,3.72
2023-05-10T06:40:31.049Z,4.10
2023-05-10T06:43:33.411Z,4.10
2023-05-10T06:46:36.407Z,3.60
2023-05-10T06:49:38.649Z,4.10
2023-05-10T06:52:40.925Z,4.00
2023-05-10T06:55:43.285Z,4.03
2023-05-10T06:58:45.633Z,3.55
2023-05-10T07:01:48.015Z,3.70
2023-05-10T07:04:50.470Z,3.83
2023-05-10T07:07:52.805Z,4.15
2023-05-10T07:11:01.142Z,4.20
2023-05-10T07:14:03.813Z,4.25
2023-05-10T07:17:06.334Z,3.03
2023-05-10T07:20:09.034Z,4.57
2023-05-10T07:23:11.423Z,4.05
2023-05-10T07:26:13.639Z,3.53
2023-05-10T07:29:15.857Z,3.97
2023-05-10T07:32:20.447Z,3.70
2023-05-10T07:35:22.741Z,3.50
2023-05-10T07:38:25.064Z,3.70
2023-05-10T07:41:27.299Z,3.23
2023-05-10T07:44:29.536Z,3.28
2023-05-10T07:47:31.803Z,3.00
2023-05-10T07:50:34.095Z,3.38
2023-05-10T07:53:36.514Z,3.53
2023-05-10T07:56:39.024Z,4.40
2023-05-10T07:59:42.304Z,4.72
2023-05-10T08:02:46.146Z,3.20
2023-05-10T08:05:48.570Z,3.80
2023-05-10T08:08:51.713Z,3.50
2023-05-10T08:11:54.463Z,4.40
2023-05-10T08:14:56.827Z,3.45
2023-05-10T08:17:59.068Z,4.00
2023-05-10T08:21:01.346Z,3.60
2023-05-10T08:24:03.995Z,3.50
2023-05-10T08:27:06.676Z,3.50
2023-05-10T08:30:09.289Z,3.42
2023-05-10T08:33:11.636Z,3.05
2023-05-10T08:36:15.374Z,3.42
2023-05-10T08:39:29.406Z,3.42
2023-05-10T08:42:35.218Z,3.07
2023-05-10T08:45:38.968Z,3.28
2023-05-10T08:48:41.692Z,2.70
2023-05-10T08:51:46.934Z,3.00
2023-05-10T08:54:49.402Z,2.35
2023-05-10T08:57:51.705Z,3.37
2023-05-10T09:00:54.512Z,3.00
2023-05-10T09:03:57.327Z,3.53
2023-05-10T09:06:59.571Z,3.97
2023-05-10T09:10:01.863Z,3.45
2023-05-10T09:13:04.573Z,3.37
2023-05-10T09:16:13.872Z,3.10
2023-05-10T09:19:23.113Z,3.28
2023-05-10T09:22:26.020Z,3.40
2023-05-10T09:25:28.845Z,3.50
2023-05-10T09:28:34.909Z,3.30
2023-05-10T09:31:52.526Z,3.25
2023-05-10T09:34:54.986Z,3.15
2023-05-10T09:37:59.228Z,3.80
2023-05-10T09:41:03.738Z,2.90
2023-05-10T09:44:06.203Z,2.87
2023-05-10T09:47:08.776Z,3.00
2023-05-10T09:50:12.479Z,2.88
2023-05-10T09:53:15.766Z,3.38
2023-05-10T09:56:34.078Z,2.17
2023-05-10T09:59:36.784Z,2.10
2023-05-10T10:02:39.908Z,3.00
2023-05-10T10:05:46.346Z,2.83
2023-05-10T10:08:48.727Z,2.85
2023-05-10T10:11:51.408Z,2.50
2023-05-10T10:14:54.697Z,2.90
2023-05-10T10:17:57.093Z,2.50
2023-05-10T10:20:59.732Z,2.65
2023-05-10T10:24:02.416Z,2.55
2023-05-10T10:27:10.105Z,2.22
2023-05-10T10:30:27.891Z,2.10
2023-05-10T10:34:03.770Z,2.20
2023-05-10T10:37:06.849Z,2.35
2023-05-10T10:40:35.398Z,2.33
2023-05-10T10:43:37.682Z,2.30
2023-05-10T10:47:13.229Z,2.40
2023-05-10T10:50:17.337Z,1.98
2023-05-10T10:53:20.259Z,1.90
2023-05-10T10:56:24.650Z,2.25
2023-05-10T10:59:30.174Z,1.98
2023-05-10T11:02:44.247Z,2.27
2023-05-10T11:05:47.795Z,2.00
2023-05-10T11:08:50.388Z,2.08
2023-05-10T11:11:56.188Z,1.80
2023-05-10T11:14:59.145Z,1.90
2023-05-10T11:18:17.051Z,1.97
2023-05-10T11:21:19.255Z,2.10
2023-05-10T11:24:23.733Z,1.90
2023-05-10T11:27:26.092Z,1.77
2023-05-10T11:30:28.470Z,2.25
2023-05-10T11:33:30.679Z,1.87
2023-05-10T11:36:37.075Z,1.95
2023-05-10T11:39:39.530Z,1.90
2023-05-10T11:42:41.921Z,2.00
2023-05-10T11:45:44.171Z,2.20
2023-05-10T11:48:46.941Z,1.73
2023-05-10T11:51:49.458Z,1.70
2023-05-10T11:54:52.403Z,1.80
2023-05-10T11:57:55.557Z,1.60
2023-05-10T12:00:58.256Z,1.90
2023-05-10T12:04:01.737Z,1.80
2023-05-10T12:07:04.234Z,1.77
2023-05-10T12:10:11.230Z,1.70
2023-05-10T12:13:15.217Z,1.63
2023-05-10T12:16:24.763Z,2.15
2023-05-10T12:19:27.043Z,1.60
2023-05-10T12:22:29.270Z,1.90
2023-05-10T12:25:32.445Z,1.95
2023-05-10T12:28:34.842Z,2.00
2023-05-10T12:31:49.930Z,1.95
2023-05-10T12:34:54.366Z,2.00
2023-05-10T12:37:56.633Z,2.20
2023-05-10T12:41:00.517Z,1.95
2023-05-10T12:44:02.895Z,2.28
2023-05-10T12:47:05.192Z,1.92
2023-05-10T12:50:07.751Z,1.70
2023-05-10T12:53:10.225Z,1.67
2023-05-10T12:56:12.500Z,1.60
2023-05-10T12:59:14.814Z,1.52
2023-05-10T13:02:19.157Z,1.50
2023-05-10T13:05:21.470Z,1.27
2023-05-10T13:08:23.707Z,2.10
2023-05-10T13:11:26.158Z,1.65
2023-05-10T13:14:28.455Z,1.90
2023-05-10T13:17:32.193Z,1.83
2023-05-10T13:20:36.050Z,1.30
2023-05-10T13:23:41.140Z,1.70
2023-05-10T13:26:43.680Z,1.75
2023-05-10T13:29:47.459Z,1.48
2023-05-10T13:32:51.320Z,1.50
2023-05-10T13:35:55.651Z,1.50
2023-05-10T13:38:58.121Z,1.50
2023-05-10T13:42:00.304Z,1.50
2023-05-10T13:45:05.535Z,1.48
2023-05-10T13:48:08.737Z,1.55
2023-05-10T13:51:11.000Z,1.00
2023-05-10T13:54:13.765Z,1.58
2023-05-10T13:57:17.821Z,1.20
2023-05-10T14:00:20.165Z,1.30
2023-05-10T14:03:22.594Z,1.40
2023-05-10T14:06:24.916Z,1.37
2023-05-10T14:09:27.153Z,1.38
2023-05-10T14:12:29.594Z,1.10
2023-05-10T14:15:31.795Z,1.20
2023-05-10T14:18:34.102Z,1.38
2023-05-10T14:21:36.375Z,1.10
2023-05-10T14:24:39.297Z,1.38
2023-05-10T14:27:41.473Z,1.38
2023-05-10T14:30:43.655Z,1.60
2023-05-10T14:33:45.910Z,1.42
2023-05-10T14:36:48.177Z,1.20
2023-05-10T14:39:50.367Z,1.20
2023-05-10T14:42:54.056Z,1.30
2023-05-10T14:45:56.334Z,1.00
2023-05-10T14:48:58.647Z,1.17
2023-05-10T14:52:00.927Z,1.13
2023-05-10T14:55:03.387Z,0.98
2023-05-10T14:58:05.646Z,1.23
2023-05-10T15:01:07.879Z,1.30
2023-05-10T15:04:10.854Z,1.23
2023-05-10T15:07:15.784Z,1.00
2023-05-10T15:10:18.602Z,1.10
2023-05-10T15:13:20.838Z,1.30
2023-05-10T15:16:23.023Z,1.40
2023-05-10T15:19:25.280Z,1.38
2023-05-10T15:22:29.301Z,1.20
2023-05-10T15:25:31.545Z,1.48
2023-05-10T15:28:34.527Z,1.52
2023-05-10T15:31:37.090Z,1.13
2023-05-10T15:34:39.450Z,1.60
2023-05-10T15:37:41.616Z,1.23
2023-05-10T15:40:43.858Z,1.30
2023-05-10T15:43:46.046Z,1.60
2023-05-10T15:46:48.386Z,1.20
2023-05-10T15:49:50.611Z,1.25
2023-05-10T15:52:54.051Z,1.20
2023-05-10T15:55:56.313Z,1.45
2023-05-10T15:58:58.538Z,1.10
2023-05-10T16:02:00.941Z,1.38
2023-05-10T16:05:03.576Z,2.13
2023-05-10T16:08:06.031Z,1.40
2023-05-10T16:11:08.269Z,1.55
2023-05-10T16:14:10.522Z,1.38
2023-05-10T16:17:13.047Z,1.70
2023-05-10T16:20:15.595Z,1.63
2023-05-10T16:23:17.891Z,1.70
2023-05-10T16:26:20.231Z,1.55
2023-05-10T16:29:22.447Z,1.65
2023-05-10T16:32:24.766Z,1.90
2023-05-10T16:35:27.270Z,1.60
2023-05-10T16:38:29.502Z,2.07
2023-05-10T16:41:35.077Z,1.70
2023-05-10T16:44:37.290Z,1.70
2023-05-10T16:47:40.314Z,1.90
2023-05-10T16:50:45.759Z,1.80
2023-05-10T16:53:47.996Z,2.00
2023-05-10T16:56:50.421Z,1.77
2023-05-10T16:59:56.349Z,1.90
2023-05-10T17:02:58.840Z,1.90
2023-05-10T17:06:01.157Z,1.60
2023-05-10T17:09:04.064Z,1.80
2023-05-10T17:12:06.405Z,2.30
2023-05-10T17:15:09.366Z,2.28
2023-05-10T17:18:11.694Z,1.73
2023-05-10T17:21:13.923Z,2.00
2023-05-10T17:24:16.064Z,1.80
2023-05-10T17:27:18.268Z,2.10
2023-05-10T17:30:26.121Z,1.73
2023-05-10T17:33:28.345Z,1.63
2023-05-10T17:36:30.495Z,1.77
2023-05-10T17:39:34.194Z,1.87
2023-05-10T17:42:36.472Z,1.60
2023-05-10T17:45:38.698Z,1.52
2023-05-10T17:48:41.954Z,1.60
2023-05-10T17:51:44.713Z,1.80
2023-05-10T17:54:47.246Z,1.70
2023-05-10T17:57:51.730Z,1.60
2023-05-10T18:00:55.011Z,1.77
2023-05-10T18:03:57.244Z,2.00
2023-05-10T18:07:01.562Z,1.40
2023-05-10T18:10:04.306Z,1.70
2023-05-10T18:13:08.683Z,1.67
2023-05-10T18:16:13.411Z,1.70
2023-05-10T18:19:15.829Z,1.70
2023-05-10T18:22:18.033Z,1.50
2023-05-10T18:25:20.386Z,1.67
2023-05-10T18:28:24.545Z,1.73
2023-05-10T18:31:26.951Z,1.95
2023-05-10T18:34:29.160Z,1.67
2023-05-10T18:37:31.507Z,1.83
2023-05-10T18:40:33.781Z,2.00
2023-05-10T18:43:36.308Z,1.80
2023-05-10T18:46:38.882Z,1.45
2023-05-10T18:49:41.394Z,1.95
2023-05-10T18:52:43.717Z,2.03
2023-05-10T18:55:46.658Z,1.90
2023-05-10T18:58:49.058Z,1.73
2023-05-10T19:01:52.296Z,1.88
2023-05-10T19:04:59.639Z,1.73
2023-05-10T19:08:02.198Z,1.85
2023-05-10T19:11:04.521Z,1.70
2023-05-10T19:14:06.826Z,1.55
2023-05-10T19:17:09.249Z,1.70
2023-05-10T19:20:11.727Z,1.30
2023-05-10T19:23:13.924Z,1.63
2023-05-10T19:26:16.480Z,1.60
2023-05-10T19:29:18.796Z,1.75
2023-05-10T19:32:21.156Z,1.70
2023-05-10T19:35:23.794Z,1.77
2023-05-10T19:38:26.320Z,1.48
2023-05-10T19:41:28.741Z,1.70
2023-05-10T19:44:31.035Z,1.58
2023-05-10T19:47:35.231Z,1.70
2023-05-10T19:50:38.357Z,1.90
2023-05-10T19:53:44.215Z,1.80
2023-05-10T19:56:46.518Z,1.90
2023-05-10T19:59:48.761Z,1.73
2023-05-10T20:02:51.144Z,1.60
2023-05-10T20:05:53.348Z,1.70
2023-05-10T20:08:55.981Z,2.17
2023-05-10T20:11:58.316Z,1.77
2023-05-10T20:15:00.865Z,1.90
2023-05-10T20:18:03.815Z,1.70
2023-05-10T20:21:07.000Z,1.70
2023-05-10T20:24:09.333Z,1.88
2023-05-10T20:27:11.579Z,1.90
2023-05-10T20:30:13.895Z,1.70
2023-05-10T20:33:16.678Z,1.52
2023-05-10T20:36:18.879Z,1.60
2023-05-10T20:39:21.474Z,1.50
2023-05-10T20:42:23.775Z,1.70
2023-05-10T20:45:26.098Z,1.70
2023-05-10T20:48:28.345Z,1.60
2023-05-10T20:51:33.083Z,1.63
2023-05-10T20:54:35.422Z,1.67
2023-05-10T20:57:37.719Z,1.63
2023-05-10T21:00:39.893Z,1.88
2023-05-10T21:03:42.145Z,1.83
2023-05-10T21:06:44.530Z,1.60
2023-05-10T21:09:46.716Z,1.52
2023-05-10T21:12:48.938Z,1.70
2023-05-10T21:15:51.250Z,1.85
2023-05-10T21:18:53.729Z,1.90
2023-05-10T21:21:57.216Z,1.85
2023-05-10T21:24:59.666Z,2.03
2023-05-10T21:28:01.931Z,1.60
2023-05-10T21:31:04.252Z,1.70
2023-05-10T21:34:06.806Z,1.73
2023-05-10T21:37:09.086Z,1.98
2023-05-10T21:40:11.728Z,1.80
2023-05-10T21:43:13.966Z,1.63
2023-05-10T21:46:16.179Z,1.80
2023-05-10T21:49:18.978Z,2.30
2023-05-10T21:52:21.215Z,1.80
2023-05-10T21:55:23.533Z,1.50
2023-05-10T21:58:25.855Z,1.63
2023-05-10T22:01:28.167Z,1.73
2023-05-10T22:04:30.456Z,1.80
2023-05-10T22:07:32.884Z,1.55
2023-05-10T22:10:35.122Z,1.85
2023-05-10T22:13:37.312Z,1.73
2023-05-10T22:16:39.553Z,1.85
2023-05-10T22:19:41.879Z,1.83
2023-05-10T22:22:44.444Z,1.55
2023-05-10T22:25:46.652Z,1.80
2023-05-10T22:28:48.882Z,2.00
2023-05-10T22:31:51.234Z,1.90
2023-05-10T22:34:53.399Z,2.00
2023-05-10T22:37:55.760Z,1.80
2023-05-10T22:40:58.703Z,2.10
2023-05-10T22:44:01.406Z,1.97
2023-05-10T22:47:03.987Z,2.10
2023-05-10T22:50:06.558Z,2.08
2023-05-10T22:53:08.700Z,2.15
2023-05-10T22:56:11.032Z,2.05
2023-05-10T22:59:13.268Z,2.20
2023-05-10T23:02:15.519Z,2.30
2023-05-10T23:05:17.946Z,2.75
2023-05-10T23:08:20.143Z,2.15
2023-05-10T23:11:22.434Z,1.98
2023-05-10T23:14:24.769Z,2.10
2023-05-10T23:17:27.125Z,2.00
2023-05-10T23:20:29.347Z,1.90
2023-05-10T23:23:34.013Z,2.00
2023-05-10T23:26:36.265Z,2.40
2023-05-10T23:29:38.449Z,1.80
2023-05-10T23:32:40.751Z,1.80
2023-05-10T23:35:42.921Z,2.03
2023-05-10T23:38:45.176Z,1.77
2023-05-10T23:41:47.917Z,2.28
2023-05-10T23:44:51.120Z,1.83
2023-05-10T23:47:53.404Z,2.40
2023-05-10T23:50:55.701Z,2.05
2023-05-10T23:53:57.959Z,1.95
2023-05-10T23:57:01.052Z,2.00
